createdAt,value
2019-06-08T00:01:02.259Z,93.50
2019-06-08T00:06:05.482Z,93.37
2019-06-08T00:11:07.996Z,92.87
2019-06-08T00:16:11.650Z,92.45
2019-06-08T00:21:15.531Z,92.66
2019-06-08T00:26:18.579Z,91.29
2019-06-08T00:31:21.995Z,94.65
2019-06-08T00:36:25.683Z,95.01
2019-06-08T00:41:28.876Z,96.40
2019-06-08T00:46:32.113Z,97.92
2019-06-08T00:51:35.335Z,98.36
2019-06-08T00:56:38.513Z,98.04
2019-06-08T01:01:41.796Z,97.51
2019-06-08T01:06:45.387Z,97.65
2019-06-08T01:11:48.633Z,97.71
2019-06-08T01:16:51.918Z,97.30
2019-06-08T01:21:55.194Z,97.26
2019-06-08T01:26:58.543Z,97.38
2019-06-08T01:32:02.146Z,98.19
2019-06-08T01:37:05.723Z,96.77
2019-06-08T01:42:09.326Z,96.31
2019-06-08T01:47:11.957Z,98.25
2019-06-08T01:52:15.317Z,98.69
2019-06-08T01:57:18.288Z,98.26
2019-06-08T02:02:21.222Z,97.84
2019-06-08T02:07:24.430Z,97.86
2019-06-08T02:12:27.011Z,95.97
2019-06-08T02:17:31.294Z,93.95
2019-06-08T02:22:34.880Z,92.38
2019-06-08T02:27:38.197Z,89.62
2019-06-08T02:32:41.085Z,90.83
2019-06-08T02:37:44.580Z,92.09
2019-06-08T02:42:47.149Z,92.90
2019-06-08T02:47:50.007Z,93.31
2019-06-08T02:52:52.916Z,93.58
2019-06-08T02:57:56.696Z,93.62
2019-06-08T03:03:00.173Z,93.33
2019-06-08T03:08:04.357Z,92.37
2019-06-08T03:13:08.924Z,93.31
2019-06-08T03:18:12.126Z,93.97
2019-06-08T03:23:15.359Z,92.85
2019-06-08T03:28:18.875Z,92.70
2019-06-08T03:33:22.256Z,92.68
2019-06-08T03:38:24.861Z,91.51
2019-06-08T03:43:28.036Z,92.52
2019-06-08T03:48:31.693Z,91.72
2019-06-08T03:53:35.739Z,91.35
2019-06-08T03:58:40.523Z,90.00
2019-06-08T04:03:46.034Z,90.13
2019-06-08T04:08:49.977Z,88.76
2019-06-08T04:13:53.480Z,88.91
2019-06-08T04:18:56.475Z,88.17
2019-06-08T04:23:59.810Z,87.89
2019-06-08T04:29:03.025Z,87.87
2019-06-08T04:34:05.932Z,86.66
2019-06-08T04:39:09.218Z,87.57
2019-06-08T04:44:12.536Z,86.69
2019-06-08T04:49:15.536Z,86.74
2019-06-08T04:54:18.529Z,86.21
2019-06-08T04:59:21.494Z,85.58
2019-06-08T05:04:24.431Z,85.47
2019-06-08T05:09:27.719Z,84.88
2019-06-08T05:14:30.923Z,84.05
2019-06-08T05:19:34.277Z,84.74
2019-06-08T05:24:39.481Z,84.06
2019-06-08T05:29:43.246Z,82.87
2019-06-08T05:34:47.589Z,82.19
2019-06-08T05:39:51.161Z,82.99
2019-06-08T05:44:54.535Z,81.36
2019-06-08T05:49:57.431Z,80.27
2019-06-08T05:55:01.009Z,80.59
2019-06-08T06:00:09.246Z,79.32
2019-06-08T06:05:11.107Z,79.97
2019-06-08T06:10:14.374Z,79.68
2019-06-08T06:15:18.619Z,79.46
2019-06-08T06:20:21.893Z,78.01
2019-06-08T06:25:25.224Z,74.66
2019-06-08T06:30:28.903Z,74.35
2019-06-08T06:35:31.751Z,72.67
2019-06-08T06:40:35.095Z,71.40
2019-06-08T06:45:38.304Z,72.05
2019-06-08T06:50:42.184Z,72.36
2019-06-08T06:55:45.468Z,72.86
2019-06-08T07:00:49.460Z,72.50
2019-06-08T07:05:54.043Z,70.59
2019-06-08T07:10:58.005Z,70.74
2019-06-08T07:16:17.159Z,70.69
2019-06-08T07:21:06.090Z,69.06
2019-06-08T07:26:09.613Z,68.41
2019-06-08T07:31:13.129Z,67.16
2019-06-08T07:36:18.045Z,67.33
2019-06-08T07:41:21.581Z,68.49
2019-06-08T07:46:24.887Z,66.12
2019-06-08T07:51:28.508Z,65.10
2019-06-08T07:56:31.807Z,63.31
2019-06-08T08:01:36.559Z,62.73
2019-06-08T08:06:39.616Z,63.46
2019-06-08T08:11:42.232Z,63.07
2019-06-08T08:16:45.467Z,61.34
2019-06-08T08:21:51.888Z,63.39
2019-06-08T08:26:55.026Z,60.55
2019-06-08T08:32:00.637Z,60.56
2019-06-08T08:37:07.126Z,60.29
2019-06-08T08:42:10.852Z,58.31
2019-06-08T08:47:14.167Z,56.32
2019-06-08T08:52:17.648Z,58.95
2019-06-08T08:57:20.664Z,60.19
2019-06-08T09:02:23.998Z,62.06
2019-06-08T09:07:27.576Z,61.48
2019-06-08T09:12:31.345Z,63.90
2019-06-08T09:17:34.752Z,63.11
2019-06-08T09:22:51.900Z,64.71
2019-06-08T09:27:41.561Z,62.96
2019-06-08T09:32:47.590Z,62.45
2019-06-08T09:37:50.393Z,62.53
2019-06-08T09:42:59.134Z,63.36
2019-06-08T09:48:01.864Z,65.37
2019-06-08T09:53:22.342Z,66.15
2019-06-08T09:58:11.861Z,63.61
2019-06-08T10:03:14.641Z,62.05
2019-06-08T10:08:20.190Z,62.94
2019-06-08T10:13:23.077Z,61.77
2019-06-08T10:18:28.360Z,60.25
2019-06-08T10:23:34.350Z,60.25
2019-06-08T10:28:38.887Z,60.07
2019-06-08T10:33:42.366Z,59.40
2019-06-08T10:38:48.027Z,59.65
2019-06-08T10:43:51.056Z,59.49
2019-06-08T10:48:53.822Z,58.61
2019-06-08T10:53:57.956Z,58.49
2019-06-08T10:59:03.500Z,57.98
2019-06-08T11:04:07.242Z,57.00
2019-06-08T11:09:14.323Z,57.18
2019-06-08T11:14:22.593Z,56.27
2019-06-08T11:19:26.528Z,57.71
2019-06-08T11:24:31.290Z,57.57
2019-06-08T11:29:34.674Z,57.65
2019-06-08T11:34:38.058Z,58.33
2019-06-08T11:39:40.291Z,58.36
2019-06-08T11:44:43.902Z,58.99
2019-06-08T11:49:49.709Z,58.06
2019-06-08T11:54:51.700Z,57.83
2019-06-08T11:59:58.350Z,57.05
2019-06-08T12:05:01.741Z,57.54
2019-06-08T12:10:06.385Z,57.64
2019-06-08T12:15:13.180Z,58.85
2019-06-08T12:20:18.035Z,60.04
2019-06-08T12:25:21.602Z,61.05
2019-06-08T12:30:26.505Z,61.81
2019-06-08T12:35:30.103Z,61.79
2019-06-08T12:40:33.433Z,61.41
2019-06-08T12:45:38.099Z,62.23
2019-06-08T12:50:40.995Z,61.66
2019-06-08T12:55:44.603Z,61.56
2019-06-08T13:00:48.271Z,62.40
2019-06-08T13:05:53.512Z,61.68
2019-06-08T13:10:57.483Z,61.02
2019-06-08T13:16:01.954Z,59.79
2019-06-08T13:21:16.673Z,61.17
2019-06-08T13:26:15.085Z,61.26
2019-06-08T13:31:21.842Z,62.01
2019-06-08T13:36:26.252Z,63.27
2019-06-08T13:41:29.995Z,64.36
2019-06-08T13:46:33.399Z,64.44
2019-06-08T13:51:38.384Z,63.98
2019-06-08T13:56:41.136Z,63.36
2019-06-08T14:01:44.711Z,65.00
2019-06-08T14:06:50.542Z,64.06
2019-06-08T14:11:53.104Z,62.28
2019-06-08T14:16:58.655Z,61.10
2019-06-08T14:22:03.356Z,61.05
2019-06-08T14:27:08.203Z,59.36
2019-06-08T14:32:11.861Z,58.24
2019-06-08T14:37:15.219Z,56.81
2019-06-08T14:42:24.661Z,56.95
2019-06-08T14:47:24.813Z,58.45
2019-06-08T14:52:30.740Z,58.18
2019-06-08T14:57:33.403Z,59.17
2019-06-08T15:02:37.941Z,57.86
2019-06-08T15:07:41.457Z,58.65
2019-06-08T15:12:44.725Z,57.42
2019-06-08T15:17:48.380Z,57.96
2019-06-08T15:22:53.319Z,57.57
2019-06-08T15:28:00.643Z,57.25
2019-06-08T15:33:02.447Z,56.87
2019-06-08T15:38:08.172Z,55.74
2019-06-08T15:43:11.453Z,54.44
2019-06-08T15:48:14.606Z,55.11
2019-06-08T15:53:18.390Z,56.65
2019-06-08T15:58:22.597Z,56.52
2019-06-08T16:03:27.323Z,56.61
2019-06-08T16:08:32.210Z,54.25
2019-06-08T16:13:35.433Z,52.82
2019-06-08T16:18:38.742Z,54.31
2019-06-08T16:23:42.136Z,53.90
2019-06-08T16:28:45.967Z,55.22
2019-06-08T16:33:49.269Z,55.05
2019-06-08T16:38:52.999Z,56.00
2019-06-08T16:43:56.679Z,55.90
2019-06-08T16:49:00.099Z,55.98
2019-06-08T16:54:03.389Z,57.82
2019-06-08T16:59:06.840Z,65.75
2019-06-08T17:04:10.819Z,69.70
2019-06-08T17:09:13.872Z,69.04
2019-06-08T17:14:17.204Z,68.82
2019-06-08T17:19:20.577Z,67.16
2019-06-08T17:24:24.253Z,63.17
2019-06-08T17:29:27.608Z,60.63
2019-06-08T17:34:34.940Z,58.89
2019-06-08T17:39:40.049Z,56.12
2019-06-08T17:44:43.874Z,57.10
2019-06-08T17:49:47.850Z,58.61
2019-06-08T17:54:51.502Z,59.02
2019-06-08T17:59:57.579Z,58.45
2019-06-08T18:05:00.670Z,58.97
2019-06-08T18:10:07.185Z,57.21
2019-06-08T18:15:10.915Z,58.07
2019-06-08T18:20:17.551Z,59.27
2019-06-08T18:25:20.034Z,58.67
2019-06-08T18:30:24.789Z,59.35
2019-06-08T18:35:28.899Z,59.97
2019-06-08T18:40:31.897Z,60.04
2019-06-08T18:45:39.517Z,59.08
2019-06-08T18:50:42.122Z,59.49
2019-06-08T18:55:46.966Z,59.79
2019-06-08T19:00:51.616Z,60.87
2019-06-08T19:05:55.517Z,61.32
2019-06-08T19:10:58.542Z,61.63
2019-06-08T19:16:02.118Z,62.24
2019-06-08T19:21:08.535Z,62.95
2019-06-08T19:26:12.183Z,64.11
2019-06-08T19:31:17.610Z,64.47
2019-06-08T19:36:20.834Z,65.49
2019-06-08T19:41:24.209Z,65.85
2019-06-08T19:46:27.582Z,66.72
2019-06-08T19:51:31.141Z,67.17
2019-06-08T19:56:33.891Z,67.83
2019-06-08T20:01:37.909Z,68.95
2019-06-08T20:06:41.328Z,69.72
2019-06-08T20:11:49.427Z,70.26
2019-06-08T20:16:50.925Z,70.86
2019-06-08T20:21:54.486Z,70.98
2019-06-08T20:26:57.870Z,71.35
2019-06-08T20:32:01.656Z,72.30
2019-06-08T20:37:07.947Z,70.76
2019-06-08T20:42:12.034Z,70.69
2019-06-08T20:47:17.894Z,69.85
2019-06-08T20:52:21.067Z,70.17
2019-06-08T20:57:24.705Z,69.86
2019-06-08T21:02:28.580Z,69.45
2019-06-08T21:07:32.240Z,69.87
2019-06-08T21:12:37.952Z,69.99
2019-06-08T21:17:41.222Z,70.60
2019-06-08T21:22:44.999Z,71.14
2019-06-08T21:27:51.086Z,72.04
2019-06-08T21:32:56.883Z,72.99
2019-06-08T21:38:01.319Z,74.12
2019-06-08T21:43:09.040Z,75.30
2019-06-08T21:48:12.358Z,76.18
2019-06-08T21:53:17.991Z,76.62
2019-06-08T21:58:21.297Z,76.64
2019-06-08T22:03:24.470Z,75.87
2019-06-08T22:08:27.060Z,76.09
2019-06-08T22:13:30.414Z,75.54
2019-06-08T22:18:33.668Z,74.28
2019-06-08T22:23:36.918Z,74.39
2019-06-08T22:28:39.775Z,73.82
2019-06-08T22:33:43.299Z,74.09
2019-06-08T22:38:47.740Z,73.95
2019-06-08T22:43:51.188Z,73.56
2019-06-08T22:48:55.342Z,73.87
2019-06-08T22:54:02.036Z,73.65
2019-06-08T22:59:06.746Z,73.92
2019-06-08T23:04:09.724Z,74.34
2019-06-08T23:09:13.372Z,73.97
2019-06-08T23:14:18.040Z,74.82
2019-06-08T23:19:20.931Z,74.42
2019-06-08T23:24:24.305Z,74.50
2019-06-08T23:29:27.426Z,74.97
2019-06-08T23:34:30.511Z,74.18
2019-06-08T23:39:33.568Z,74.99
2019-06-08T23:44:37.751Z,75.12
2019-06-08T23:49:41.475Z,74.95
2019-06-08T23:54:47.656Z,74.75
2019-06-08T23:59:50.495Z,74.23
